createdAt,value
2018-09-14T00:01:25.546Z,75.32
2018-09-14T00:04:30.522Z,75.19
2018-09-14T00:07:35.794Z,76.36
2018-09-14T00:10:40.737Z,76.05
2018-09-14T00:13:45.891Z,75.94
2018-09-14T00:16:50.869Z,76.08
2018-09-14T00:19:55.889Z,75.13
2018-09-14T00:23:00.817Z,75.89
2018-09-14T00:26:05.940Z,76.68
2018-09-14T00:29:10.854Z,76.76
2018-09-14T00:32:15.781Z,75.89
2018-09-14T00:35:20.725Z,76.14
2018-09-14T00:38:25.654Z,76.61
2018-09-14T00:41:30.593Z,76.01
2018-09-14T00:44:35.540Z,75.02
2018-09-14T00:47:40.496Z,74.82
2018-09-14T00:50:45.500Z,75.82
2018-09-14T00:53:50.445Z,75.67
2018-09-14T00:56:55.393Z,75.74
2018-09-14T01:00:00.346Z,75.42
2018-09-14T01:03:05.333Z,75.35
2018-09-14T01:06:10.283Z,75.35
2018-09-14T01:09:20.969Z,74.46
2018-09-14T01:12:25.983Z,74.14
2018-09-14T01:15:30.953Z,75.03
2018-09-14T01:18:35.923Z,74.99
2018-09-14T01:21:40.909Z,75.48
2018-09-14T01:24:45.874Z,75.10
2018-09-14T01:27:50.834Z,75.57
2018-09-14T01:30:55.809Z,75.77
2018-09-14T01:34:00.749Z,75.51
2018-09-14T01:37:05.731Z,75.95
2018-09-14T01:40:10.689Z,75.70
2018-09-14T01:43:15.637Z,75.61
2018-09-14T01:46:20.589Z,75.81
2018-09-14T01:49:25.516Z,75.72
2018-09-14T01:52:30.449Z,75.70
2018-09-14T01:55:35.400Z,74.46
2018-09-14T01:58:40.330Z,75.46
2018-09-14T02:01:45.273Z,76.20
2018-09-14T02:04:50.249Z,75.48
2018-09-14T02:07:55.172Z,75.56
2018-09-14T02:11:00.105Z,76.38
2018-09-14T02:14:05.053Z,75.14
2018-09-14T02:17:09.998Z,76.11
2018-09-14T02:20:16.111Z,76.73
2018-09-14T02:23:21.085Z,76.32
2018-09-14T02:26:26.038Z,76.90
2018-09-14T02:29:30.967Z,75.79
2018-09-14T02:32:36.358Z,77.04
2018-09-14T02:35:41.285Z,76.72
2018-09-14T02:38:46.226Z,76.57
2018-09-14T02:41:51.174Z,76.99
2018-09-14T02:44:56.093Z,77.45
2018-09-14T02:48:01.099Z,77.64
2018-09-14T02:51:06.057Z,77.54
2018-09-14T02:54:11.030Z,76.45
2018-09-14T02:57:16.007Z,77.67
2018-09-14T03:00:20.932Z,78.38
2018-09-14T03:03:25.869Z,77.93
2018-09-14T03:06:30.796Z,76.60
2018-09-14T03:09:35.757Z,77.43
2018-09-14T03:12:40.697Z,77.35
2018-09-14T03:15:45.672Z,77.90
2018-09-14T03:18:50.602Z,77.68
2018-09-14T03:21:55.531Z,76.93
2018-09-14T03:25:00.470Z,76.61
2018-09-14T03:28:05.463Z,77.10
2018-09-14T03:31:10.418Z,75.74
2018-09-14T03:34:15.361Z,76.71
2018-09-14T03:37:20.284Z,76.77
2018-09-14T03:40:25.222Z,76.40
2018-09-14T03:43:30.167Z,77.37
2018-09-14T03:46:35.114Z,76.98
2018-09-14T03:49:40.052Z,77.30
2018-09-14T03:52:44.980Z,76.63
2018-09-14T03:55:49.928Z,76.96
2018-09-14T03:58:54.872Z,77.98
2018-09-14T04:01:59.813Z,78.08
2018-09-14T04:05:04.825Z,77.97
2018-09-14T04:08:09.795Z,78.12
2018-09-14T04:11:14.741Z,77.75
2018-09-14T04:14:19.669Z,76.95
2018-09-14T04:17:24.591Z,76.64
2018-09-14T04:20:29.525Z,76.98
2018-09-14T04:23:34.575Z,76.95
2018-09-14T04:26:39.421Z,77.99
2018-09-14T04:29:44.353Z,76.92
2018-09-14T04:32:49.269Z,76.71
2018-09-14T04:35:54.206Z,76.55
2018-09-14T04:38:59.156Z,76.27
2018-09-14T04:42:04.092Z,76.91
2018-09-14T04:45:09.023Z,76.06
2018-09-14T04:48:13.954Z,76.67
2018-09-14T04:51:18.939Z,76.19
2018-09-14T04:54:23.853Z,75.11
2018-09-14T04:57:28.865Z,75.53
2018-09-14T05:00:33.726Z,75.89
2018-09-14T05:03:38.681Z,75.33
2018-09-14T05:06:43.625Z,75.16
2018-09-14T05:09:48.586Z,75.94
2018-09-14T05:12:53.493Z,75.06
2018-09-14T05:15:58.414Z,74.98
2018-09-14T05:19:03.401Z,74.99
2018-09-14T05:22:08.359Z,75.84
2018-09-14T05:25:13.436Z,76.57
2018-09-14T05:28:18.354Z,76.44
2018-09-14T05:31:23.524Z,75.50
2018-09-14T05:34:28.582Z,76.18
2018-09-14T05:37:33.690Z,75.58
2018-09-14T05:40:38.641Z,75.76
2018-09-14T05:43:43.592Z,76.22
2018-09-14T05:46:48.569Z,76.32
2018-09-14T05:49:53.546Z,76.13
2018-09-14T05:52:58.534Z,75.97
2018-09-14T05:56:03.533Z,76.70
2018-09-14T05:59:08.498Z,75.48
2018-09-14T06:02:13.511Z,75.25
2018-09-14T06:05:18.525Z,76.23
2018-09-14T06:08:23.488Z,75.99
2018-09-14T06:11:28.466Z,75.46
2018-09-14T06:14:33.842Z,76.04
2018-09-14T06:17:38.817Z,74.85
2018-09-14T06:20:43.808Z,74.42
2018-09-14T06:23:48.946Z,73.92
2018-09-14T06:26:53.946Z,73.64
2018-09-14T06:29:59.129Z,72.01
2018-09-14T06:33:04.074Z,73.19
2018-09-14T06:36:09.033Z,72.67
2018-09-14T06:39:13.969Z,71.69
2018-09-14T06:42:18.934Z,72.24
2018-09-14T06:45:24.068Z,71.92
2018-09-14T06:48:28.949Z,70.85
2018-09-14T06:51:35.117Z,72.83
2018-09-14T06:54:40.070Z,72.90
2018-09-14T06:57:45.021Z,73.23
2018-09-14T07:00:50.149Z,74.26
2018-09-14T07:03:55.242Z,74.51
2018-09-14T07:07:00.219Z,73.22
2018-09-14T07:10:05.184Z,73.00
2018-09-14T07:13:10.122Z,72.00
2018-09-14T07:16:15.061Z,71.72
2018-09-14T07:19:19.993Z,71.74
2018-09-14T07:22:24.971Z,71.21
2018-09-14T07:25:29.881Z,71.25
2018-09-14T07:28:34.860Z,70.12
2018-09-14T07:31:39.910Z,68.26
2018-09-14T07:34:44.770Z,68.49
2018-09-14T07:37:49.720Z,68.47
2018-09-14T07:40:54.670Z,66.98
2018-09-14T07:43:59.624Z,67.05
2018-09-14T07:47:04.822Z,65.29
2018-09-14T07:50:09.774Z,63.72
2018-09-14T07:53:14.741Z,64.05
2018-09-14T07:56:19.788Z,63.24
2018-09-14T07:59:24.733Z,62.54
2018-09-14T08:02:29.716Z,61.83
2018-09-14T08:05:34.656Z,61.42
2018-09-14T08:08:39.665Z,62.09
2018-09-14T08:11:44.621Z,62.73
2018-09-14T08:14:49.564Z,61.91
2018-09-14T08:17:54.516Z,62.13
2018-09-14T08:20:59.505Z,63.96
2018-09-14T08:24:04.425Z,63.15
2018-09-14T08:27:09.417Z,61.33
2018-09-14T08:30:14.318Z,60.75
2018-09-14T08:33:19.252Z,60.22
2018-09-14T08:36:24.193Z,59.35
2018-09-14T08:39:29.113Z,59.03
2018-09-14T08:42:34.297Z,58.95
2018-09-14T08:45:39.245Z,59.83
2018-09-14T08:48:44.185Z,59.06
2018-09-14T08:51:49.129Z,59.34
2018-09-14T08:54:54.108Z,58.72
2018-09-14T08:57:59.329Z,57.84
2018-09-14T09:01:04.649Z,58.04
2018-09-14T09:04:10.679Z,56.85
2018-09-14T09:07:15.718Z,55.68
2018-09-14T09:10:20.689Z,55.86
2018-09-14T09:13:25.766Z,56.05
2018-09-14T09:16:30.741Z,54.58
2018-09-14T09:19:35.859Z,55.40
2018-09-14T09:22:40.825Z,53.07
2018-09-14T09:25:45.904Z,54.33
2018-09-14T09:28:50.855Z,54.26
2018-09-14T09:31:55.910Z,55.25
2018-09-14T09:35:00.880Z,53.42
2018-09-14T09:38:05.934Z,55.68
2018-09-14T09:41:10.893Z,54.23
2018-09-14T09:44:15.858Z,54.28
2018-09-14T09:47:20.869Z,52.57
2018-09-14T09:50:25.885Z,52.78
2018-09-14T09:53:30.821Z,53.11
2018-09-14T09:56:35.927Z,50.93
2018-09-14T10:03:27.183Z,49.31
2018-09-14T10:06:32.058Z,50.86
2018-09-14T10:09:36.989Z,49.33
2018-09-14T10:12:41.925Z,50.49
2018-09-14T10:15:46.858Z,49.90
2018-09-14T10:18:51.823Z,50.14
2018-09-14T10:21:56.766Z,49.78
2018-09-14T10:25:01.684Z,48.72
2018-09-14T10:28:06.653Z,50.74
2018-09-14T10:31:11.575Z,48.71
2018-09-14T10:34:16.513Z,47.53
2018-09-14T10:37:21.466Z,47.44
2018-09-14T10:40:26.436Z,46.59
2018-09-14T10:43:31.362Z,46.35
2018-09-14T10:46:36.305Z,43.93
2018-09-14T10:49:41.477Z,45.10
2018-09-14T10:52:46.533Z,43.97
2018-09-14T10:55:51.663Z,42.45
2018-09-14T10:58:56.729Z,44.05
2018-09-14T11:02:01.762Z,43.59
2018-09-14T11:05:06.900Z,41.72
2018-09-14T11:08:11.933Z,42.37
2018-09-14T11:11:16.937Z,41.55
2018-09-14T11:14:21.990Z,41.01
2018-09-14T11:17:27.911Z,40.57
2018-09-14T11:20:33.029Z,42.07
2018-09-14T11:23:38.270Z,42.28
2018-09-14T11:26:43.302Z,40.55
2018-09-14T11:29:48.322Z,38.81
2018-09-14T11:32:53.328Z,39.32
2018-09-14T11:35:58.295Z,39.25
2018-09-14T11:39:05.456Z,40.88
2018-09-14T11:42:10.437Z,38.59
2018-09-14T11:45:15.528Z,40.33
2018-09-14T11:48:20.473Z,39.63
2018-09-14T11:51:25.467Z,39.18
2018-09-14T11:54:31.189Z,40.71
2018-09-14T11:57:36.360Z,42.75
2018-09-14T12:00:41.309Z,43.58
2018-09-14T12:03:46.478Z,45.59
2018-09-14T12:06:51.488Z,45.47
2018-09-14T12:09:56.513Z,46.04
2018-09-14T12:13:01.549Z,46.18
2018-09-14T12:16:06.625Z,45.58
2018-09-14T12:19:11.634Z,45.10
2018-09-14T12:22:16.644Z,44.25
2018-09-14T12:25:21.749Z,45.08
2018-09-14T12:28:26.726Z,46.18
2018-09-14T12:31:31.656Z,45.89
2018-09-14T12:34:36.609Z,47.13
2018-09-14T12:37:41.573Z,45.72
2018-09-14T12:40:46.587Z,45.58
2018-09-14T12:43:51.565Z,44.63
2018-09-14T12:46:56.521Z,44.09
2018-09-14T12:50:01.773Z,44.95
2018-09-14T12:53:07.022Z,43.57
2018-09-14T12:56:12.071Z,44.06
2018-09-14T12:59:17.120Z,43.39
2018-09-14T13:02:22.536Z,42.66
2018-09-14T13:05:27.609Z,44.76
2018-09-14T13:08:32.626Z,43.97
2018-09-14T13:11:38.125Z,44.84
2018-09-14T13:14:43.143Z,45.27
2018-09-14T13:17:48.361Z,45.54
2018-09-14T13:20:53.518Z,45.87
2018-09-14T13:23:58.547Z,44.91
2018-09-14T13:27:03.546Z,45.31
2018-09-14T13:30:08.654Z,45.38
2018-09-14T13:33:13.682Z,43.45
2018-09-14T13:36:18.709Z,42.94
2018-09-14T13:39:24.299Z,45.33
2018-09-14T13:42:29.398Z,46.22
2018-09-14T13:45:34.406Z,46.36
2018-09-14T13:48:39.413Z,45.96
2018-09-14T13:51:44.476Z,45.36
2018-09-14T13:54:49.478Z,44.62
2018-09-14T13:57:54.578Z,46.36
2018-09-14T14:00:59.680Z,46.40
2018-09-14T14:04:04.913Z,43.52
2018-09-14T14:07:09.888Z,44.10
2018-09-14T14:10:14.945Z,44.07
2018-09-14T14:13:19.898Z,44.62
2018-09-14T14:16:24.929Z,44.43
2018-09-14T14:19:29.896Z,45.78
2018-09-14T14:22:34.878Z,45.85
2018-09-14T14:25:39.891Z,45.99
2018-09-14T14:28:44.880Z,46.61
2018-09-14T14:31:50.038Z,47.08
2018-09-14T14:34:55.042Z,46.72
2018-09-14T14:38:00.019Z,47.46
2018-09-14T14:41:05.058Z,47.83
2018-09-14T14:44:10.066Z,47.89
2018-09-14T14:47:15.127Z,47.93
2018-09-14T14:50:20.425Z,47.00
2018-09-14T14:53:26.333Z,47.75
2018-09-14T14:56:32.504Z,48.26
2018-09-14T14:59:37.579Z,47.91
2018-09-14T15:02:42.559Z,47.56
2018-09-14T15:05:47.546Z,47.21
2018-09-14T15:08:52.541Z,47.12
2018-09-14T15:11:57.509Z,46.27
2018-09-14T15:15:02.493Z,46.43
2018-09-14T15:18:07.494Z,46.10
2018-09-14T15:21:12.533Z,47.34
2018-09-14T15:24:17.516Z,46.70
2018-09-14T15:27:22.493Z,45.80
2018-09-14T15:30:27.470Z,44.64
2018-09-14T15:33:32.525Z,45.21
2018-09-14T15:36:37.637Z,46.07
2018-09-14T15:39:42.678Z,45.18
2018-09-14T15:42:48.157Z,44.96
2018-09-14T15:45:53.201Z,45.59
2018-09-14T15:48:58.310Z,47.33
2018-09-14T15:52:03.367Z,46.73
2018-09-14T15:55:08.421Z,47.22
2018-09-14T15:58:14.069Z,46.96
2018-09-14T16:01:19.385Z,46.67
2018-09-14T16:04:24.569Z,46.43
2018-09-14T16:07:29.671Z,46.93
2018-09-14T16:10:34.650Z,46.62
2018-09-14T16:13:39.659Z,47.39
2018-09-14T16:16:44.624Z,47.58
2018-09-14T16:19:49.825Z,48.34
2018-09-14T16:22:54.817Z,47.52
2018-09-14T16:25:59.770Z,47.90
2018-09-14T16:32:23.221Z,50.38
2018-09-14T16:35:28.235Z,51.31
2018-09-14T16:38:33.391Z,51.30
2018-09-14T16:41:38.593Z,51.39
2018-09-14T16:47:55.937Z,52.13
2018-09-14T16:51:00.975Z,52.10
2018-09-14T16:54:06.167Z,52.79
2018-09-14T16:57:11.168Z,52.23
2018-09-14T17:00:16.557Z,52.07
2018-09-14T17:03:21.823Z,51.78
2018-09-14T17:06:26.788Z,53.15
2018-09-14T17:09:31.919Z,53.44
2018-09-14T17:12:37.110Z,52.86
2018-09-14T17:15:42.057Z,53.35
2018-09-14T17:18:47.570Z,53.16
2018-09-14T17:21:52.686Z,54.41
2018-09-14T17:24:57.946Z,53.84
2018-09-14T17:28:03.208Z,54.03
2018-09-14T17:31:08.350Z,55.55
2018-09-14T17:34:13.394Z,56.53
2018-09-14T17:37:18.426Z,54.00
2018-09-14T17:40:23.872Z,54.89
2018-09-14T17:43:28.860Z,55.25
2018-09-14T17:46:33.863Z,55.58
2018-09-14T17:49:38.813Z,55.53
2018-09-14T17:52:43.910Z,54.92
2018-09-14T17:55:48.977Z,55.88
2018-09-14T17:58:53.917Z,56.70
2018-09-14T18:01:58.867Z,56.85
2018-09-14T18:05:04.173Z,57.48
2018-09-14T18:08:09.113Z,57.17
2018-09-14T18:11:14.429Z,57.73
2018-09-14T18:14:19.390Z,58.08
2018-09-14T18:17:24.632Z,58.67
2018-09-14T18:20:29.778Z,57.61
2018-09-14T18:23:34.861Z,58.84
2018-09-14T18:26:39.793Z,58.30
2018-09-14T18:29:45.223Z,58.37
2018-09-14T18:32:50.414Z,58.71
2018-09-14T18:35:55.477Z,58.64
2018-09-14T18:39:00.777Z,59.38
2018-09-14T18:42:05.881Z,59.40
2018-09-14T18:45:12.286Z,59.47
2018-09-14T18:48:17.402Z,59.46
2018-09-14T18:51:22.422Z,59.25
2018-09-14T18:54:27.417Z,60.39
2018-09-14T18:57:32.373Z,62.07
2018-09-14T19:00:37.731Z,63.04
2018-09-14T19:03:42.720Z,63.57
2018-09-14T19:06:47.715Z,64.49
2018-09-14T19:09:53.212Z,62.97
2018-09-14T19:12:58.189Z,62.68
2018-09-14T19:16:03.459Z,62.68
2018-09-14T19:19:08.867Z,63.25
2018-09-14T19:22:14.034Z,63.64
2018-09-14T19:25:19.313Z,63.69
2018-09-14T19:28:24.484Z,63.71
2018-09-14T19:31:29.498Z,64.60
2018-09-14T19:37:51.261Z,64.49
2018-09-14T19:40:56.601Z,64.77
2018-09-14T19:44:01.913Z,64.49
2018-09-14T19:47:07.321Z,64.94
2018-09-14T19:50:12.791Z,65.04
2018-09-14T19:53:17.914Z,64.24
2018-09-14T19:56:23.013Z,65.18
2018-09-14T19:59:28.285Z,64.40
2018-09-14T20:02:33.257Z,64.55
2018-09-14T20:05:38.521Z,64.47
2018-09-14T20:08:43.513Z,64.91
2018-09-14T20:11:48.535Z,65.73
2018-09-14T20:14:53.905Z,65.06
2018-09-14T20:17:58.862Z,66.77
2018-09-14T20:21:04.214Z,67.18
2018-09-14T20:24:09.191Z,66.91
2018-09-14T20:27:14.138Z,67.35
2018-09-14T20:30:19.091Z,67.23
2018-09-14T20:33:24.194Z,66.41
2018-09-14T20:36:29.144Z,66.30
2018-09-14T20:39:34.590Z,66.67
2018-09-14T20:42:39.577Z,67.90
2018-09-14T20:45:44.936Z,68.94
2018-09-14T20:48:49.905Z,67.99
2018-09-14T20:51:55.202Z,68.30
2018-09-14T20:55:00.192Z,67.97
2018-09-14T20:58:05.370Z,68.27
2018-09-14T21:01:10.404Z,67.50
2018-09-14T21:04:15.555Z,69.69
2018-09-14T21:07:20.618Z,70.11
2018-09-14T21:10:25.715Z,69.99
2018-09-14T21:13:30.754Z,70.87
2018-09-14T21:16:35.812Z,70.96
2018-09-14T21:19:40.856Z,70.83
2018-09-14T21:22:45.987Z,69.63
2018-09-14T21:25:50.904Z,69.85
2018-09-14T21:28:55.878Z,70.14
2018-09-14T21:32:01.225Z,70.82
2018-09-14T21:35:06.261Z,71.20
2018-09-14T21:38:11.401Z,71.22
2018-09-14T21:41:16.646Z,70.65
2018-09-14T21:44:21.893Z,71.24
2018-09-14T21:47:27.157Z,70.40
2018-09-14T21:50:32.130Z,70.32
2018-09-14T21:53:37.571Z,70.56
2018-09-14T21:56:42.827Z,69.96
2018-09-14T22:03:28.975Z,69.38
2018-09-14T22:06:34.053Z,68.97
2018-09-14T22:09:39.224Z,69.72
2018-09-14T22:12:44.757Z,69.18
2018-09-14T22:15:49.948Z,70.05
2018-09-14T22:18:55.078Z,69.77
2018-09-14T22:22:00.099Z,69.37
2018-09-14T22:25:05.290Z,69.48
2018-09-14T22:28:10.266Z,69.41
2018-09-14T22:31:15.242Z,70.70
2018-09-14T22:34:20.381Z,71.02
2018-09-14T22:37:25.391Z,71.60
2018-09-14T22:40:30.360Z,71.66
2018-09-14T22:43:35.345Z,71.52
2018-09-14T22:46:40.312Z,72.16
2018-09-14T22:49:45.261Z,71.82
2018-09-14T22:52:50.377Z,71.45
2018-09-14T22:55:55.321Z,71.11
2018-09-14T22:59:00.324Z,71.33
2018-09-14T23:02:05.385Z,72.10
2018-09-14T23:05:10.340Z,71.16
2018-09-14T23:08:15.278Z,71.95
2018-09-14T23:11:20.210Z,71.47
2018-09-14T23:14:25.165Z,71.97
2018-09-14T23:17:30.129Z,71.69
2018-09-14T23:20:35.118Z,72.41
2018-09-14T23:23:40.049Z,71.82
2018-09-14T23:26:45.080Z,72.46
2018-09-14T23:29:50.024Z,71.70
2018-09-14T23:32:55.014Z,73.09
2018-09-14T23:35:59.924Z,72.74
2018-09-14T23:39:07.293Z,73.51
2018-09-14T23:42:12.233Z,72.41
2018-09-14T23:45:17.188Z,73.02
2018-09-14T23:48:22.130Z,72.25
2018-09-14T23:51:27.077Z,73.06
2018-09-14T23:54:32.016Z,73.40
2018-09-14T23:57:36.993Z,72.62
